< < Back
Terminal Aerodrome Forecast


Current Version              Previous Versions:   1  2  3  4  5  6  7  8  9  

Terminal Aerodrome Forecast

635
FTUS44 KBMX 011503 AAA
TAFMGM
TAF AMD
KMGM 011503Z 0115/0212 19006KT P6SM BKN030
     FM012000 20006KT P6SM VCTS BKN050CB
     FM020200 VRB03KT P6SM SCT025 BKN050=

Latest METAR

520
SAUS80 KWBC 011700 RRC
MTRMGM
METAR KMGM 011653Z 18006KT 10SM FEW033 SCT040 29/19 A3002 RMK AO2 SLP161
T02890194 $


USA.gov is the U.S. government's official web portal to all federal, state and local government web resources and services.